Time;durP1;ratioP1;P1;durP2;ratioP2;P2;SDS_P1;SDS_P2;PMS_P1;PMS_P2;Temp;Humidity;BMP_temperature;BMP_pressure;BME280_temperature;BME280_humidity;BME280_pressure;Samples;Min_cycle;Max_cycle;Signal;HPM_P1;HPM_P2
2022/07/06 00:00:33;;;;;;;7.82;2.60;;;15.00;99.90;;;;;;4989798;28;20038;-91
2022/07/06 00:02:59;;;;;;;9.55;2.42;;;15.00;99.90;;;;;;4989807;28;20049;-86
2022/07/06 00:05:25;;;;;;;10.77;2.40;;;15.00;99.90;;;;;;4988690;28;20122;-91
2022/07/06 00:07:51;;;;;;;12.25;2.75;;;15.10;99.90;;;;;;4988637;28;20027;-85
2022/07/06 00:10:16;;;;;;;12.77;2.90;;;15.00;99.90;;;;;;4990535;28;20026;-85
2022/07/06 00:12:42;;;;;;;8.85;2.55;;;14.90;99.90;;;;;;4989844;28;20046;-90
2022/07/06 00:15:08;;;;;;;7.30;2.60;;;14.90;99.90;;;;;;4989939;28;20023;-88
2022/07/06 00:17:34;;;;;;;10.07;2.78;;;14.90;99.90;;;;;;4988484;28;20030;-87
2022/07/06 00:19:59;;;;;;;9.60;3.20;;;14.80;99.90;;;;;;4989768;28;20023;-92
2022/07/06 00:22:25;;;;;;;10.75;2.97;;;14.80;99.90;;;;;;4992230;28;20042;-91
2022/07/06 00:24:51;;;;;;;8.98;2.50;;;14.70;99.90;;;;;;4993686;28;20022;-85
2022/07/06 00:27:16;;;;;;;8.18;2.83;;;14.70;99.90;;;;;;4994467;28;20046;-89
2022/07/06 00:29:43;;;;;;;7.10;2.80;;;14.70;99.90;;;;;;4992316;28;20075;-85
2022/07/06 00:32:11;;;;;;;11.20;2.97;;;14.70;99.90;;;;;;4993557;28;20026;-90
2022/07/06 00:34:39;;;;;;;9.85;3.08;;;14.60;99.90;;;;;;4993579;28;20470;-89
2022/07/06 00:37:05;;;;;;;8.60;3.25;;;14.60;99.90;;;;;;4993723;28;20491;-89
2022/07/06 00:39:31;;;;;;;11.00;3.00;;;14.60;99.90;;;;;;4993420;28;20109;-91
2022/07/06 00:41:57;;;;;;;9.77;3.25;;;14.60;99.90;;;;;;4993458;28;20117;-86
2022/07/06 00:44:22;;;;;;;8.82;2.70;;;14.60;99.90;;;;;;4993288;28;20030;-88
2022/07/06 00:46:48;;;;;;;10.32;3.65;;;14.60;99.90;;;;;;4994096;28;20046;-90
2022/07/06 00:51:59;;;;;;;9.48;3.00;;;14.70;99.90;;;;;;4993414;28;20485;-85
2022/07/06 00:54:26;;;;;;;7.38;2.70;;;14.60;99.90;;;;;;4992296;28;20050;-91
2022/07/06 00:56:52;;;;;;;7.10;2.60;;;14.60;99.90;;;;;;4993262;28;20061;-85
2022/07/06 00:59:18;;;;;;;12.40;2.97;;;14.70;99.90;;;;;;4993887;28;20034;-91
2022/07/06 01:01:44;;;;;;;11.35;3.10;;;14.60;99.90;;;;;;4993006;28;20034;-90
2022/07/06 01:04:10;;;;;;;19.25;3.60;;;14.70;99.90;;;;;;4991820;28;20045;-90
2022/07/06 01:06:36;;;;;;;8.88;3.30;;;14.60;99.90;;;;;;4992887;28;20029;-91
2022/07/06 01:09:03;;;;;;;6.45;2.60;;;14.70;99.90;;;;;;4992841;28;20149;-90
2022/07/06 01:11:28;;;;;;;12.55;2.67;;;14.70;99.90;;;;;;4992798;28;20026;-90
2022/07/06 01:13:56;;;;;;;9.35;2.67;;;14.70;99.90;;;;;;5008019;28;20022;-90
2022/07/06 01:16:21;;;;;;;8.67;3.17;;;14.60;99.90;;;;;;4993552;28;20502;-90
2022/07/06 01:18:47;;;;;;;9.98;3.30;;;14.60;99.90;;;;;;4992653;28;20022;-90
2022/07/06 01:21:14;;;;;;;10.73;3.13;;;14.60;99.90;;;;;;4992553;28;20438;-91
2022/07/06 01:23:42;;;;;;;10.93;3.42;;;14.60;99.90;;;;;;4992620;28;20031;-87
2022/07/06 01:26:13;;;;;;;13.03;3.33;;;14.50;99.90;;;;;;4992584;28;20398;-90
2022/07/06 01:28:39;;;;;;;7.82;3.20;;;14.40;99.90;;;;;;4991141;28;20292;-90
2022/07/06 01:31:05;;;;;;;10.90;3.45;;;14.40;99.90;;;;;;4992301;28;20029;-90
2022/07/06 01:33:31;;;;;;;11.50;3.60;;;14.40;99.90;;;;;;4991835;28;20057;-90
2022/07/06 01:35:57;;;;;;;12.35;3.10;;;14.30;99.90;;;;;;4992504;28;20022;-92
2022/07/06 01:38:22;;;;;;;12.60;3.05;;;14.40;99.90;;;;;;4993086;28;20022;-85
2022/07/06 01:40:48;;;;;;;6.78;2.90;;;14.40;99.90;;;;;;4992260;28;20475;-91
2022/07/06 01:43:14;;;;;;;13.63;3.10;;;14.40;99.90;;;;;;5007373;28;20422;-91
2022/07/06 01:45:39;;;;;;;8.00;2.88;;;14.40;99.90;;;;;;4992109;28;20037;-86
2022/07/06 01:48:06;;;;;;;13.45;3.47;;;14.40;99.90;;;;;;4992161;28;20026;-88
2022/07/06 01:50:32;;;;;;;9.48;3.08;;;14.40;99.90;;;;;;5006823;28;20042;-89
2022/07/06 01:53:00;;;;;;;14.02;3.15;;;14.40;99.90;;;;;;4991750;28;20030;-85
2022/07/06 01:55:25;;;;;;;10.10;2.97;;;14.40;99.90;;;;;;4990802;28;20502;-85
2022/07/06 01:57:51;;;;;;;8.32;2.70;;;14.40;99.90;;;;;;4992449;28;20034;-85
2022/07/06 02:00:16;;;;;;;9.20;2.80;;;14.30;99.90;;;;;;4991512;28;20046;-85
2022/07/06 02:02:42;;;;;;;6.20;2.75;;;14.30;99.90;;;;;;4991473;28;20085;-85
2022/07/06 02:05:08;;;;;;;8.02;2.65;;;14.30;99.90;;;;;;4991494;28;20146;-85
2022/07/06 02:07:34;;;;;;;12.93;2.88;;;14.30;99.90;;;;;;4991465;28;20050;-85
2022/07/06 02:09:59;;;;;;;7.63;3.03;;;14.30;99.90;;;;;;4992663;28;20027;-85
2022/07/06 02:12:25;;;;;;;9.30;2.88;;;14.30;99.90;;;;;;4992155;28;20031;-90
2022/07/06 02:14:50;;;;;;;6.68;2.78;;;14.20;99.90;;;;;;4991223;28;20049;-85
2022/07/06 02:17:17;;;;;;;11.30;3.58;;;14.20;99.90;;;;;;5006228;28;20034;-85
2022/07/06 02:19:42;;;;;;;8.75;3.00;;;14.10;99.90;;;;;;5006069;28;20088;-85
2022/07/06 02:22:08;;;;;;;6.95;3.20;;;14.00;99.90;;;;;;4990950;28;20461;-85
2022/07/06 02:24:33;;;;;;;7.82;2.80;;;14.00;99.90;;;;;;4990988;28;20022;-91
2022/07/06 02:26:59;;;;;;;8.07;2.92;;;14.00;99.90;;;;;;4989786;28;20023;-84
2022/07/06 02:29:25;;;;;;;8.48;3.03;;;14.00;99.90;;;;;;4991971;28;20022;-85
2022/07/06 02:31:51;;;;;;;10.05;3.10;;;13.90;99.90;;;;;;4991033;28;20015;-85
2022/07/06 02:34:17;;;;;;;10.82;3.33;;;13.90;99.90;;;;;;4990902;28;20254;-91
2022/07/06 02:36:42;;;;;;;6.65;2.90;;;13.90;99.90;;;;;;4990857;28;20034;-86
2022/07/06 02:39:08;;;;;;;8.45;3.00;;;13.90;99.90;;;;;;4990767;28;20398;-85
2022/07/06 02:41:34;;;;;;;8.95;3.45;;;13.90;99.90;;;;;;4990688;28;20459;-84
2022/07/06 02:43:59;;;;;;;6.97;3.13;;;13.90;99.90;;;;;;4990809;28;20430;-87
2022/07/06 02:46:25;;;;;;;10.63;3.38;;;13.90;99.90;;;;;;4990912;28;20038;-87
2022/07/06 02:48:50;;;;;;;9.48;3.60;;;13.90;99.90;;;;;;4990593;28;20479;-85
2022/07/06 02:51:16;;;;;;;10.13;3.45;;;13.90;99.90;;;;;;4990562;28;20026;-92
2022/07/06 02:53:42;;;;;;;9.73;3.55;;;13.80;99.90;;;;;;4990660;28;20390;-89
2022/07/06 02:56:08;;;;;;;6.97;3.35;;;13.90;99.90;;;;;;4990623;28;20401;-85
2022/07/06 02:58:33;;;;;;;11.65;4.25;;;13.90;99.90;;;;;;4990510;28;20486;-85
2022/07/06 03:00:59;;;;;;;10.32;3.65;;;13.90;99.90;;;;;;4990309;28;20475;-85
2022/07/06 03:03:25;;;;;;;12.70;3.75;;;13.90;99.90;;;;;;4991019;28;20410;-85
2022/07/06 03:05:50;;;;;;;11.10;3.97;;;14.00;99.90;;;;;;4990349;28;20085;-87
2022/07/06 03:08:16;;;;;;;10.50;3.80;;;13.90;99.90;;;;;;4989063;28;20026;-84
2022/07/06 03:10:42;;;;;;;8.57;3.90;;;13.90;99.90;;;;;;4990119;28;20478;-84
2022/07/06 03:13:07;;;;;;;10.45;3.70;;;13.90;99.90;;;;;;4990283;28;20021;-93
2022/07/06 03:15:33;;;;;;;6.85;3.40;;;13.90;99.90;;;;;;4990697;28;20030;-85
2022/07/06 03:17:59;;;;;;;10.32;3.78;;;13.90;99.90;;;;;;4991558;28;20018;-92
2022/07/06 03:20:25;;;;;;;10.00;4.03;;;13.80;99.90;;;;;;4989801;28;20444;-91
2022/07/06 03:22:50;;;;;;;10.07;4.30;;;13.90;99.90;;;;;;4990266;28;20137;-86
2022/07/06 03:25:16;;;;;;;12.68;4.82;;;13.90;99.90;;;;;;5005805;28;20058;-92
2022/07/06 03:27:42;;;;;;;11.15;4.53;;;13.80;99.90;;;;;;4989184;28;20032;-88
2022/07/06 03:30:08;;;;;;;7.65;3.90;;;13.90;99.90;;;;;;4990447;28;20097;-91
2022/07/06 03:32:33;;;;;;;12.63;4.70;;;13.90;99.90;;;;;;4990104;28;20018;-91
2022/07/06 03:34:59;;;;;;;6.78;3.80;;;13.90;99.90;;;;;;4991222;28;20131;-91
2022/07/06 03:37:25;;;;;;;12.15;4.40;;;13.90;99.90;;;;;;4990407;28;20037;-86
2022/07/06 03:39:50;;;;;;;11.43;4.20;;;13.90;99.90;;;;;;4989025;28;20031;-86
2022/07/06 03:42:16;;;;;;;13.30;4.88;;;13.90;99.90;;;;;;4989843;28;20027;-88
2022/07/06 03:44:41;;;;;;;11.93;4.60;;;13.80;99.90;;;;;;4990190;28;20034;-86
2022/07/06 03:47:07;;;;;;;10.70;4.82;;;13.80;99.90;;;;;;4989981;28;20101;-86
2022/07/06 03:49:33;;;;;;;32.42;5.47;;;13.80;99.90;;;;;;4990312;28;20393;-84
2022/07/06 03:51:58;;;;;;;9.27;4.78;;;13.80;99.90;;;;;;4991038;28;20041;-91
2022/07/06 03:54:24;;;;;;;34.70;6.32;;;13.70;99.90;;;;;;4990179;28;20026;-90
2022/07/06 03:56:50;;;;;;;75.35;6.50;;;13.70;99.90;;;;;;5008420;28;20113;-93
2022/07/06 03:59:15;;;;;;;6.35;4.78;;;13.70;99.90;;;;;;4996669;28;20027;-92
2022/07/06 04:01:41;;;;;;;35.38;5.80;;;13.70;99.90;;;;;;4996262;28;20041;-92
2022/07/06 04:04:07;;;;;;;205.13;8.52;;;13.70;99.90;;;;;;4996581;28;20429;-91
2022/07/06 04:06:34;;;;;;;21.98;5.00;;;13.70;99.90;;;;;;4996938;28;20018;-87
2022/07/06 04:09:00;;;;;;;139.18;6.32;;;13.60;99.90;;;;;;4995832;28;20037;-84
2022/07/06 04:11:26;;;;;;;66.05;5.53;;;13.50;99.90;;;;;;5013017;28;20022;-84
2022/07/06 04:13:51;;;;;;;109.32;6.60;;;13.40;99.90;;;;;;4996997;28;20033;-84
2022/07/06 04:16:17;;;;;;;147.90;6.30;;;13.40;99.90;;;;;;4996619;28;20023;-84
2022/07/06 04:18:42;;;;;;;63.35;5.50;;;13.30;99.90;;;;;;4994803;28;20031;-85
2022/07/06 04:21:08;;;;;;;143.70;6.65;;;13.30;99.90;;;;;;4995896;28;20033;-85
2022/07/06 04:23:34;;;;;;;65.82;5.32;;;13.30;99.90;;;;;;4996149;28;20042;-87
2022/07/06 04:25:59;;;;;;;32.47;5.57;;;13.30;99.90;;;;;;4997223;28;20076;-88
2022/07/06 04:28:25;;;;;;;49.03;5.03;;;13.30;99.90;;;;;;4996419;28;20081;-91
2022/07/06 04:30:51;;;;;;;14.20;4.28;;;13.30;99.90;;;;;;4996389;28;20101;-91
2022/07/06 04:33:17;;;;;;;62.20;5.45;;;13.20;99.90;;;;;;4996354;28;20450;-91
2022/07/06 04:35:42;;;;;;;147.10;8.27;;;13.40;99.90;;;;;;4996387;28;20390;-85
2022/07/06 04:38:08;;;;;;;145.52;6.57;;;13.20;99.90;;;;;;4996440;28;20101;-85
2022/07/06 04:40:34;;;;;;;102.38;5.80;;;13.20;99.90;;;;;;4996293;28;20038;-85
2022/07/06 04:42:59;;;;;;;139.48;6.10;;;13.20;99.90;;;;;;5012286;28;20038;-92
2022/07/06 04:45:25;;;;;;;18.50;4.25;;;13.30;99.90;;;;;;4996119;28;20364;-91
2022/07/06 04:47:51;;;;;;;193.50;6.45;;;13.40;99.90;;;;;;4996738;28;20026;-86
2022/07/06 04:50:17;;;;;;;301.02;8.02;;;13.50;99.90;;;;;;5009679;28;20066;-84
2022/07/06 04:52:43;;;;;;;183.52;5.93;;;13.50;99.90;;;;;;5004366;28;20026;-84
2022/07/06 04:55:10;;;;;;;188.00;5.57;;;13.50;99.90;;;;;;5000619;28;20030;-83
2022/07/06 04:57:35;;;;;;;229.20;6.70;;;13.50;99.90;;;;;;5005760;28;20014;-85
2022/07/06 05:00:01;;;;;;;19.42;3.83;;;13.40;99.90;;;;;;5002537;28;20023;-85
2022/07/06 05:02:27;;;;;;;179.27;5.60;;;13.40;99.90;;;;;;5000725;28;20037;-85
2022/07/06 05:04:53;;;;;;;116.15;4.93;;;13.50;99.90;;;;;;4998841;28;20109;-84
2022/07/06 05:07:18;;;;;;;104.95;5.13;;;13.30;99.90;;;;;;4998819;28;20061;-85
2022/07/06 05:09:44;;;;;;;27.10;3.80;;;13.30;99.90;;;;;;4997247;28;20031;-85
2022/07/06 05:12:10;;;;;;;20.55;3.38;;;13.20;99.90;;;;;;4997284;28;20026;-85
2022/07/06 05:14:36;;;;;;;42.50;4.22;;;13.20;99.90;;;;;;4997926;28;20022;-84
2022/07/06 05:17:02;;;;;;;64.40;5.50;;;13.30;99.90;;;;;;5001024;28;20491;-86
2022/07/06 05:19:27;;;;;;;82.03;4.63;;;13.40;99.90;;;;;;4997281;28;20018;-85
2022/07/06 05:21:53;;;;;;;4.57;3.33;;;13.40;99.90;;;;;;4994208;28;20037;-85
2022/07/06 05:24:19;;;;;;;22.05;3.90;;;13.60;99.90;;;;;;4996670;28;20034;-85
2022/07/06 05:26:45;;;;;;;4.15;3.70;;;;;;;;;;4995358;28;20105;-86
2022/07/06 05:29:11;;;;;;;85.72;4.80;;;13.70;99.90;;;;;;4995151;28;20022;-85
2022/07/06 05:31:36;;;;;;;44.55;4.13;;;13.80;99.90;;;;;;4996630;28;20057;-84
2022/07/06 05:34:02;;;;;;;57.92;4.97;;;13.70;99.90;;;;;;4996584;28;20448;-84
2022/07/06 05:36:30;;;;;;;5.35;3.60;;;13.60;99.90;;;;;;4997377;28;20109;-84
2022/07/06 05:38:56;;;;;;;4.38;3.95;;;13.70;99.90;;;;;;4998423;28;20037;-83
2022/07/06 05:41:21;;;;;;;6.90;4.43;;;13.70;99.90;;;;;;5001480;28;20076;-84
2022/07/06 05:43:47;;;;;;;60.25;5.10;;;13.80;99.90;;;;;;4996547;28;20042;-88
2022/07/06 05:46:13;;;;;;;43.35;4.75;;;13.80;99.90;;;;;;4997134;28;20037;-88
2022/07/06 05:51:22;;;;;;;27.40;4.68;;;13.80;99.90;;;;;;4992856;28;20121;-90
2022/07/06 05:53:48;;;;;;;30.08;4.43;;;13.80;99.90;;;;;;4992871;28;20453;-84
2022/07/06 05:56:14;;;;;;;28.10;4.53;;;14.00;99.90;;;;;;4991922;28;20029;-84
2022/07/06 05:58:39;;;;;;;22.83;4.78;;;14.00;99.90;;;;;;4997723;28;20057;-84
2022/07/06 06:01:07;;;;;;;30.42;5.20;;;14.20;99.90;;;;;;4996766;28;20092;-84
2022/07/06 06:03:33;;;;;;;25.15;4.85;;;14.10;99.90;;;;;;4997781;28;20034;-83
2022/07/06 06:05:59;;;;;;;13.82;5.07;;;14.30;99.90;;;;;;4993256;28;20030;-83
2022/07/06 06:08:25;;;;;;;7.78;5.40;;;14.20;99.90;;;;;;4996570;28;20032;-84
2022/07/06 06:10:51;;;;;;;10.52;5.15;;;14.40;99.90;;;;;;4992611;28;20034;-83
2022/07/06 06:13:16;;;;;;;6.57;4.55;;;14.50;99.90;;;;;;4992206;28;20423;-84
2022/07/06 06:15:42;;;;;;;9.40;5.10;;;14.50;99.90;;;;;;4992310;28;20038;-83
2022/07/06 06:18:07;;;;;;;11.18;5.47;;;14.70;99.90;;;;;;4996128;28;20030;-84
2022/07/06 06:20:33;;;;;;;6.43;4.90;;;14.80;99.90;;;;;;4996530;28;20065;-83
2022/07/06 06:23:00;;;;;;;10.63;5.85;;;14.90;99.90;;;;;;4980289;28;20487;-92
2022/07/06 06:25:33;;;;;;;10.32;5.60;;;14.90;99.90;;;;;;4983568;28;20023;-87
2022/07/06 06:27:59;;;;;;;10.88;5.68;;;15.00;99.90;;;;;;4987969;28;20061;-85
2022/07/06 06:30:25;;;;;;;10.70;5.68;;;15.10;99.90;;;;;;4993834;28;20018;-94
2022/07/06 06:32:51;;;;;;;9.70;5.55;;;;;;;;;;4999327;28;20537;-83
2022/07/06 06:35:17;;;;;;;8.10;4.90;;;15.10;99.90;;;;;;4999355;28;20026;-85
2022/07/06 06:37:43;;;;;;;10.50;5.18;;;15.20;99.90;;;;;;5006149;28;20003;-84
2022/07/06 06:40:09;;;;;;;9.80;5.00;;;15.40;99.90;;;;;;4992630;28;20491;-84
2022/07/06 06:42:38;;;;;;;7.65;5.00;;;15.40;99.90;;;;;;4991111;28;20034;-93
2022/07/06 06:45:05;;;;;;;9.60;4.82;;;;;;;;;;5000429;28;20014;-86
2022/07/06 06:47:30;;;;;;;7.75;4.60;;;15.60;99.90;;;;;;5004014;28;20038;-85
2022/07/06 06:49:56;;;;;;;10.13;4.10;;;15.60;99.90;;;;;;5001707;28;20085;-95
2022/07/06 06:52:23;;;;;;;8.73;4.75;;;15.70;99.90;;;;;;5008692;28;20022;-85
2022/07/06 06:54:49;;;;;;;9.23;4.60;;;15.70;99.90;;;;;;4991716;28;20029;-84
2022/07/06 06:57:14;;;;;;;8.52;4.10;;;15.80;99.90;;;;;;4994930;28;20433;-92
2022/07/06 06:59:41;;;;;;;9.63;3.90;;;15.90;99.90;;;;;;4994810;28;20061;-92
2022/07/06 07:02:06;;;;;;;7.75;3.90;;;16.00;99.90;;;;;;4953514;28;1174058;-86
2022/07/06 07:04:32;;;;;;;10.35;4.03;;;16.00;99.90;;;;;;5011226;28;20028;-83
2022/07/06 07:06:58;;;;;;;6.88;4.13;;;16.10;99.90;;;;;;5009197;28;20034;-84
2022/07/06 07:09:24;;;;;;;6.90;4.05;;;16.20;99.90;;;;;;5009980;28;20033;-84
2022/07/06 07:11:49;;;;;;;6.75;3.65;;;16.20;99.90;;;;;;4993966;28;20030;-90
2022/07/06 07:14:15;;;;;;;11.57;3.70;;;16.50;99.90;;;;;;4989921;28;20014;-90
2022/07/06 07:16:41;;;;;;;8.80;3.88;;;16.40;99.90;;;;;;4989607;28;20402;-85
2022/07/06 07:19:07;;;;;;;6.80;3.70;;;16.50;99.90;;;;;;4991394;28;20018;-87
2022/07/06 07:21:32;;;;;;;22.17;4.25;;;16.60;99.90;;;;;;4989154;28;20104;-93
2022/07/06 07:23:58;;;;;;;8.75;3.53;;;16.60;99.90;;;;;;4993339;28;20148;-85
2022/07/06 07:26:24;;;;;;;5.57;3.17;;;16.70;99.90;;;;;;4990796;28;20169;-85
2022/07/06 07:28:49;;;;;;;11.02;3.42;;;16.80;99.90;;;;;;4989594;28;20046;-87
2022/07/06 07:31:15;;;;;;;10.65;3.50;;;16.80;99.90;;;;;;4990732;28;20482;-87
2022/07/06 07:33:41;;;;;;;9.75;3.40;;;16.90;99.90;;;;;;5007353;28;20034;-85
2022/07/06 07:36:07;;;;;;;11.20;2.80;;;17.00;99.90;;;;;;5003858;28;20030;-86
2022/07/06 07:38:33;;;;;;;8.10;2.90;;;17.10;99.90;;;;;;5012515;28;20069;-84
2022/07/06 07:40:59;;;;;;;9.98;2.85;;;17.20;99.90;;;;;;5006445;28;20026;-84
2022/07/06 07:43:24;;;;;;;10.95;3.00;;;17.30;99.90;;;;;;4994107;28;20414;-83
2022/07/06 07:45:50;;;;;;;5.90;2.97;;;17.40;99.90;;;;;;4989767;28;20080;-84
2022/07/06 07:48:15;;;;;;;6.07;2.85;;;17.40;99.90;;;;;;5007679;28;20143;-85
2022/07/06 07:50:42;;;;;;;5.93;2.75;;;17.50;99.90;;;;;;4989977;28;20383;-83
2022/07/06 07:53:08;;;;;;;7.95;3.25;;;17.70;99.90;;;;;;4997758;28;20034;-84
2022/07/06 07:55:34;;;;;;;8.57;2.90;;;17.70;99.90;;;;;;4985098;28;20034;-85
2022/07/06 07:57:59;;;;;;;6.40;2.47;;;17.90;99.90;;;;;;4986569;28;20037;-88
2022/07/06 08:00:26;;;;;;;7.43;2.63;;;17.90;99.90;;;;;;4987488;28;20030;-90
2022/07/06 08:02:52;;;;;;;9.40;2.90;;;18.00;99.90;;;;;;5000000;28;20037;-86
2022/07/06 08:05:18;;;;;;;12.20;3.05;;;18.00;99.90;;;;;;5011532;28;20033;-89
2022/07/06 08:07:44;;;;;;;8.55;2.70;;;18.10;99.90;;;;;;4987726;28;20030;-83
2022/07/06 08:10:10;;;;;;;8.10;2.42;;;18.20;99.90;;;;;;4989916;28;20037;-87
2022/07/06 08:12:36;;;;;;;6.43;2.70;;;18.30;99.90;;;;;;4989700;28;20054;-88
2022/07/06 08:15:02;;;;;;;6.78;2.67;;;18.30;99.90;;;;;;4979089;28;20034;-85
2022/07/06 08:17:28;;;;;;;6.25;2.70;;;18.50;99.90;;;;;;4995723;28;20026;-86
2022/07/06 08:19:54;;;;;;;11.52;2.67;;;18.30;99.90;;;;;;4979529;28;20029;-89
2022/07/06 08:22:19;;;;;;;6.00;2.50;;;18.40;99.90;;;;;;4988301;28;20037;-93
2022/07/06 08:24:47;;;;;;;7.45;2.58;;;18.40;99.90;;;;;;4999753;28;20034;-90
2022/07/06 08:27:12;;;;;;;8.57;2.55;;;18.60;99.90;;;;;;5018210;28;20034;-89
2022/07/06 08:29:38;;;;;;;10.23;2.60;;;18.70;99.90;;;;;;5004418;28;20569;-94
2022/07/06 08:32:04;;;;;;;5.45;2.50;;;18.80;99.90;;;;;;4999962;28;20033;-85
2022/07/06 08:34:30;;;;;;;8.40;2.85;;;18.90;99.90;;;;;;4999596;28;20442;-89
2022/07/06 08:36:55;;;;;;;6.07;2.67;;;19.10;99.90;;;;;;4999746;28;20029;-90
2022/07/06 08:39:21;;;;;;;9.73;2.75;;;19.20;99.90;;;;;;4998136;28;20037;-84
2022/07/06 08:41:48;;;;;;;9.80;2.90;;;19.10;99.90;;;;;;4991694;28;20128;-85
2022/07/06 08:44:17;;;;;;;7.80;3.03;;;19.30;99.90;;;;;;4995040;28;20076;-86
2022/07/06 08:46:43;;;;;;;5.63;2.80;;;19.30;99.90;;;;;;4993819;28;20025;-87
2022/07/06 08:49:13;;;;;;;7.30;3.00;;;19.20;99.90;;;;;;4994290;28;20029;-84
2022/07/06 08:51:40;;;;;;;8.00;3.30;;;19.40;99.90;;;;;;4996798;28;20088;-85
2022/07/06 08:54:07;;;;;;;7.55;2.80;;;19.50;99.90;;;;;;5003331;28;20441;-92
2022/07/06 08:56:33;;;;;;;6.80;3.03;;;19.70;99.90;;;;;;5007217;28;20033;-85
2022/07/06 08:58:59;;;;;;;6.78;2.70;;;19.60;99.90;;;;;;5001823;28;20089;-84
2022/07/06 09:01:25;;;;;;;9.30;3.20;;;19.80;99.90;;;;;;5008581;28;20028;-86
2022/07/06 09:03:51;;;;;;;8.95;3.00;;;19.70;99.90;;;;;;5018054;28;20125;-90
2022/07/06 09:06:23;;;;;;;6.78;3.03;;;19.70;99.90;;;;;;5018577;28;20019;-84
2022/07/06 09:08:49;;;;;;;9.13;2.65;;;19.70;99.90;;;;;;5003299;28;20034;-84
2022/07/06 09:11:15;;;;;;;6.82;2.55;;;19.80;99.90;;;;;;5012780;28;20025;-91
2022/07/06 09:13:41;;;;;;;5.78;2.63;;;19.90;99.90;;;;;;5016338;28;20026;-87
2022/07/06 09:16:11;;;;;;;5.80;2.90;;;19.90;99.90;;;;;;5003225;28;20401;-85
2022/07/06 09:18:38;;;;;;;7.15;2.72;;;19.90;99.90;;;;;;4992073;28;20505;-86
2022/07/06 09:21:05;;;;;;;6.00;2.42;;;19.80;99.90;;;;;;4991448;28;20022;-88
2022/07/06 09:23:31;;;;;;;10.00;2.63;;;19.90;99.90;;;;;;4992534;28;20045;-86
2022/07/06 09:25:57;;;;;;;6.10;2.70;;;;;;;;;;4992865;28;20030;-90
2022/07/06 09:28:39;;;;;;;4.50;2.50;;;19.70;99.90;;;;;;4992295;28;20033;-92
2022/07/06 09:31:08;;;;;;;8.25;3.33;;;19.60;99.90;;;;;;4992042;28;20030;-87
2022/07/06 09:33:34;;;;;;;5.97;2.50;;;19.70;99.90;;;;;;5003515;28;20104;-93
2022/07/06 09:36:01;;;;;;;9.43;2.50;;;19.80;99.90;;;;;;5011926;28;20054;-88
2022/07/06 09:38:28;;;;;;;6.43;2.40;;;19.80;99.90;;;;;;5011985;28;20045;-90
2022/07/06 09:40:54;;;;;;;4.03;2.50;;;19.80;99.90;;;;;;5011741;28;20026;-89
2022/07/06 09:43:24;;;;;;;4.45;2.33;;;19.90;99.90;;;;;;5027230;28;20034;-89
2022/07/06 09:45:54;;;;;;;4.75;2.45;;;20.10;99.90;;;;;;5011731;28;20558;-84
2022/07/06 09:48:25;;;;;;;7.75;2.58;;;20.30;99.90;;;;;;5010898;28;20541;-91
2022/07/06 09:50:56;;;;;;;5.82;2.50;;;20.40;99.90;;;;;;4991997;28;20026;-89
2022/07/06 09:53:26;;;;;;;4.50;2.58;;;20.30;99.90;;;;;;4991676;28;20022;-88
2022/07/06 09:55:58;;;;;;;8.50;2.72;;;20.10;99.90;;;;;;5005904;28;20113;-86
2022/07/06 09:58:24;;;;;;;5.30;2.50;;;20.20;99.90;;;;;;4991414;28;20026;-91
2022/07/06 10:00:50;;;;;;;3.55;2.20;;;20.20;99.90;;;;;;4991027;28;20035;-87
2022/07/06 10:03:17;;;;;;;5.22;2.40;;;20.30;99.90;;;;;;5010973;28;20072;-87
2022/07/06 10:05:47;;;;;;;6.80;2.35;;;20.50;99.90;;;;;;5011807;28;20021;-90
2022/07/06 10:08:15;;;;;;;7.95;2.33;;;20.50;99.90;;;;;;5012053;28;20030;-88
2022/07/06 10:10:41;;;;;;;;;;;20.60;99.90;;;;;;5012640;28;20077;-87
2022/07/06 10:13:08;;;;;;;6.13;2.45;;;20.70;99.90;;;;;;5011822;28;20389;-89
2022/07/06 10:15:36;;;;;;;7.68;2.05;;;20.60;99.90;;;;;;5026206;28;20136;-89
2022/07/06 10:18:04;;;;;;;3.45;2.20;;;20.70;99.90;;;;;;5031478;28;20509;-84
2022/07/06 10:20:32;;;;;;;5.22;2.45;;;20.60;99.90;;;;;;5028404;28;20022;-88
2022/07/06 10:23:00;;;;;;;5.35;2.20;;;20.60;99.90;;;;;;5013672;28;20061;-85
2022/07/06 10:25:27;;;;;;;7.25;2.10;;;20.60;99.90;;;;;;5011123;28;20018;-89
2022/07/06 10:27:53;;;;;;;5.05;2.20;;;20.50;99.90;;;;;;5010757;28;20045;-84
2022/07/06 10:30:20;;;;;;;5.43;2.20;;;20.90;99.90;;;;;;5010967;28;20069;-85
2022/07/06 10:32:49;;;;;;;6.43;2.00;;;21.20;99.90;;;;;;5011730;28;20028;-93
2022/07/06 10:35:17;;;;;;;4.88;1.90;;;21.10;99.90;;;;;;5012957;28;20451;-84
2022/07/06 10:37:42;;;;;;;4.68;1.70;;;21.20;99.90;;;;;;4990251;28;20141;-88
2022/07/06 10:42:57;;;;;;;5.63;1.70;;;21.30;99.90;;;;;;4987597;28;20041;-88
2022/07/06 10:45:29;;;;;;;4.13;2.00;;;21.20;99.90;;;;;;4989352;28;20034;-84
2022/07/06 10:48:12;;;;;;;5.65;1.90;;;21.20;99.90;;;;;;4987625;28;20023;-84
2022/07/06 10:50:55;;;;;;;4.68;2.00;;;21.10;99.90;;;;;;4989577;28;20042;-85
2022/07/06 10:53:26;;;;;;;5.00;1.83;;;21.10;99.90;;;;;;4991308;28;20022;-84
2022/07/06 10:55:56;;;;;;;7.22;1.92;;;21.40;99.90;;;;;;4989657;28;20045;-84
2022/07/06 10:58:50;;;;;;;7.82;2.00;;;21.40;99.90;;;;;;4990574;28;20078;-89
2022/07/06 11:01:17;;;;;;;2.83;1.70;;;21.60;99.90;;;;;;4989586;28;20042;-86
2022/07/06 11:04:04;;;;;;;4.85;1.77;;;21.90;99.90;;;;;;4985560;28;20030;-85
2022/07/06 11:06:38;;;;;;;2.35;1.50;;;22.00;99.90;;;;;;4970446;28;20022;-90
2022/07/06 11:09:14;;;;;;;2.80;1.50;;;21.90;96.90;;;;;;4971138;28;20042;-84
2022/07/06 11:11:42;;;;;;;3.80;1.60;;;21.70;98.20;;;;;;4971134;28;20126;-86
2022/07/06 11:14:15;;;;;;;3.80;1.67;;;21.70;97.50;;;;;;4971211;28;20027;-88
2022/07/06 11:16:47;;;;;;;4.55;1.90;;;21.70;97.60;;;;;;4969237;28;20023;-84
2022/07/06 11:19:23;;;;;;;2.85;1.60;;;21.80;99.90;;;;;;4970442;28;20026;-92
2022/07/06 11:21:57;;;;;;;4.88;1.75;;;22.10;98.60;;;;;;4968410;28;20019;-84
2022/07/06 11:24:28;;;;;;;3.90;1.45;;;22.10;98.60;;;;;;4985890;28;20054;-84
2022/07/06 11:26:55;;;;;;;3.40;1.60;;;22.10;99.20;;;;;;4984978;28;20539;-84
2022/07/06 11:29:24;;;;;;;4.23;1.70;;;21.90;97.60;;;;;;4988651;28;20148;-90
2022/07/06 11:31:52;;;;;;;2.90;1.50;;;22.00;99.30;;;;;;4989053;28;20093;-83
2022/07/06 11:34:33;;;;;;;2.85;1.50;;;22.00;98.40;;;;;;4989406;28;20042;-84
2022/07/06 11:37:09;;;;;;;2.15;1.40;;;22.00;96.70;;;;;;4986646;28;20490;-83
2022/07/06 11:39:40;;;;;;;2.85;1.63;;;22.00;98.40;;;;;;4986492;28;20034;-84
2022/07/06 11:42:07;;;;;;;4.53;1.63;;;22.20;99.90;;;;;;4987621;28;20571;-83
2022/07/06 11:44:34;;;;;;;4.88;1.60;;;22.40;96.90;;;;;;5003655;28;20110;-86
2022/07/06 11:47:03;;;;;;;2.40;1.52;;;22.30;95.10;;;;;;4988771;28;20026;-89
2022/07/06 11:49:30;;;;;;;3.22;1.70;;;22.50;96.00;;;;;;4989670;28;20029;-84
2022/07/06 11:51:56;;;;;;;2.67;1.50;;;22.50;93.80;;;;;;4990165;28;20080;-84
2022/07/06 11:54:23;;;;;;;5.65;1.90;;;22.50;96.50;;;;;;4989871;28;20410;-83
2022/07/06 11:56:52;;;;;;;6.68;1.83;;;22.60;94.50;;;;;;4990063;28;20033;-84
2022/07/06 11:59:29;;;;;;;8.57;1.70;;;22.60;93.40;;;;;;4990533;28;20030;-84
2022/07/06 12:02:05;;;;;;;3.15;1.42;;;22.60;91.70;;;;;;4989114;28;20133;-85
2022/07/06 12:04:33;;;;;;;3.42;1.55;;;22.60;94.90;;;;;;4990061;28;20031;-93
2022/07/06 12:07:04;;;;;;;3.33;1.70;;;22.80;95.90;;;;;;4989685;28;20059;-83
2022/07/06 12:09:35;;;;;;;7.63;1.77;;;22.60;91.60;;;;;;4989725;28;20042;-89
2022/07/06 12:12:02;;;;;;;3.33;1.40;;;22.70;91.20;;;;;;4989880;28;20022;-84
2022/07/06 12:14:29;;;;;;;3.63;1.65;;;22.80;93.10;;;;;;4989212;28;20088;-90
2022/07/06 12:16:55;;;;;;;2.75;1.52;;;22.90;94.00;;;;;;4978830;28;20026;-92
2022/07/06 12:19:24;;;;;;;4.20;1.50;;;22.90;93.30;;;;;;4989035;28;20034;-90
2022/07/06 12:21:52;;;;;;;2.40;1.50;;;22.90;91.30;;;;;;4991206;28;20096;-84
2022/07/06 12:24:19;;;;;;;1.48;1.38;;;22.90;91.00;;;;;;5011104;28;20038;-90
2022/07/06 12:26:45;;;;;;;;;;;23.00;92.20;;;;;;4995060;28;20019;-92
2022/07/06 12:29:16;;;;;;;3.50;1.60;;;23.10;94.00;;;;;;4991489;28;19905;-87
2022/07/06 12:31:55;;;;;;;5.95;1.73;;;23.10;91.90;;;;;;4990477;28;20426;-84
2022/07/06 12:34:25;;;;;;;4.43;1.40;;;23.20;92.80;;;;;;4988284;28;20463;-84
2022/07/06 12:36:56;;;;;;;4.10;1.52;;;23.20;92.50;;;;;;5010051;28;20056;-92
2022/07/06 12:39:23;;;;;;;6.68;1.70;;;23.20;92.00;;;;;;4994567;28;20059;-91
2022/07/06 12:41:51;;;;;;;8.80;1.73;;;23.20;93.20;;;;;;4994536;28;20022;-84
2022/07/06 12:44:23;;;;;;;;;;;23.10;88.30;;;;;;4995364;28;20469;-89
2022/07/06 12:46:50;;;;;;;6.82;1.70;;;23.30;93.60;;;;;;4993843;28;19920;-85
2022/07/06 12:49:23;;;;;;;3.42;1.50;;;23.30;94.20;;;;;;5009346;28;20036;-91
2022/07/06 12:51:56;;;;;;;6.60;1.60;;;23.30;90.60;;;;;;4996401;28;20076;-83